sensor_id;sensor_type;location;lat;lon;timestamp;pressure;altitude;pressure_sealevel;temperature;humidity
7178;BME280;3630;42.146;24.756;2022-12-29T00:02:21;100634.19;;;7.35;88.71
7178;BME280;3630;42.146;24.756;2022-12-29T00:04:49;100673.50;;;7.54;88.12
7178;BME280;3630;42.146;24.756;2022-12-29T00:07:16;100678.47;;;7.51;87.70
7178;BME280;3630;42.146;24.756;2022-12-29T00:09:43;100670.69;;;7.50;87.85
7178;BME280;3630;42.146;24.756;2022-12-29T00:12:10;100669.13;;;7.52;87.39
7178;BME280;3630;42.146;24.756;2022-12-29T00:14:38;100677.44;;;7.48;87.60
7178;BME280;3630;42.146;24.756;2022-12-29T00:17:22;100684.09;;;7.44;87.58
7178;BME280;3630;42.146;24.756;2022-12-29T00:19:49;100687.44;;;7.43;88.02
7178;BME280;3630;42.146;24.756;2022-12-29T00:22:33;100686.78;;;7.47;87.93
7178;BME280;3630;42.146;24.756;2022-12-29T00:25:18;100694.75;;;7.53;87.73
7178;BME280;3630;42.146;24.756;2022-12-29T00:28:02;100692.34;;;7.56;87.88
7178;BME280;3630;42.146;24.756;2022-12-29T00:30:48;100693.38;;;7.60;87.56
7178;BME280;3630;42.146;24.756;2022-12-29T00:33:33;100663.66;;;7.44;87.09
7178;BME280;3630;42.146;24.756;2022-12-29T00:36:19;100701.25;;;7.64;86.89
7178;BME280;3630;42.146;24.756;2022-12-29T00:38:49;100697.06;;;7.66;86.88
7178;BME280;3630;42.146;24.756;2022-12-29T00:41:36;100713.44;;;7.70;86.40
7178;BME280;3630;42.146;24.756;2022-12-29T00:44:20;100709.28;;;7.72;87.06
7178;BME280;3630;42.146;24.756;2022-12-29T00:46:49;100693.22;;;7.57;86.66
7178;BME280;3630;42.146;24.756;2022-12-29T00:49:15;100713.53;;;7.71;87.34
7178;BME280;3630;42.146;24.756;2022-12-29T00:51:57;100720.53;;;7.76;86.93
7178;BME280;3630;42.146;24.756;2022-12-29T00:54:25;100721.56;;;7.79;86.37
7178;BME280;3630;42.146;24.756;2022-12-29T00:56:52;100715.56;;;7.79;86.24
7178;BME280;3630;42.146;24.756;2022-12-29T00:59:20;100722.28;;;7.77;86.14
7178;BME280;3630;42.146;24.756;2022-12-29T01:01:48;100720.16;;;7.86;86.10
7178;BME280;3630;42.146;24.756;2022-12-29T01:04:15;100724.63;;;7.90;85.62
7178;BME280;3630;42.146;24.756;2022-12-29T01:06:42;100720.16;;;7.86;85.69
7178;BME280;3630;42.146;24.756;2022-12-29T01:09:09;100713.19;;;7.83;85.70
7178;BME280;3630;42.146;24.756;2022-12-29T01:11:54;100713.34;;;7.86;85.58
7178;BME280;3630;42.146;24.756;2022-12-29T01:14:21;100704.28;;;7.93;85.86
7178;BME280;3630;42.146;24.756;2022-12-29T01:16:50;100708.06;;;8.01;85.36
7178;BME280;3630;42.146;24.756;2022-12-29T01:19:17;100713.19;;;8.01;84.81
7178;BME280;3630;42.146;24.756;2022-12-29T01:21:44;100714.06;;;8.01;84.86
7178;BME280;3630;42.146;24.756;2022-12-29T01:24:11;100713.72;;;7.94;85.08
7178;BME280;3630;42.146;24.756;2022-12-29T01:26:38;100701.78;;;7.94;84.85
7178;BME280;3630;42.146;24.756;2022-12-29T01:29:04;100702.38;;;7.89;85.06
7178;BME280;3630;42.146;24.756;2022-12-29T01:31:31;100707.00;;;7.96;85.05
7178;BME280;3630;42.146;24.756;2022-12-29T01:33:59;100707.13;;;7.99;84.34
7178;BME280;3630;42.146;24.756;2022-12-29T01:36:27;100665.56;;;7.85;84.06
7178;BME280;3630;42.146;24.756;2022-12-29T01:38:54;100701.41;;;8.04;84.21
7178;BME280;3630;42.146;24.756;2022-12-29T01:41:21;100694.53;;;8.03;84.26
7178;BME280;3630;42.146;24.756;2022-12-29T01:43:49;100697.78;;;7.99;84.10
7178;BME280;3630;42.146;24.756;2022-12-29T01:46:23;100694.34;;;7.99;83.93
7178;BME280;3630;42.146;24.756;2022-12-29T01:48:54;100685.97;;;8.03;84.20
7178;BME280;3630;42.146;24.756;2022-12-29T01:51:25;100664.28;;;7.95;84.08
7178;BME280;3630;42.146;24.756;2022-12-29T01:53:53;100677.69;;;8.08;84.05
7178;BME280;3630;42.146;24.756;2022-12-29T01:56:22;100670.16;;;8.11;84.04
7178;BME280;3630;42.146;24.756;2022-12-29T01:58:54;100661.47;;;8.08;83.88
7178;BME280;3630;42.146;24.756;2022-12-29T02:01:22;100671.03;;;8.12;83.64
7178;BME280;3630;42.146;24.756;2022-12-29T02:03:50;100671.19;;;8.15;83.57
7178;BME280;3630;42.146;24.756;2022-12-29T02:06:21;100660.19;;;8.17;83.49
7178;BME280;3630;42.146;24.756;2022-12-29T02:08:50;100656.56;;;8.12;83.68
7178;BME280;3630;42.146;24.756;2022-12-29T02:11:19;100625.44;;;8.03;83.50
7178;BME280;3630;42.146;24.756;2022-12-29T02:13:46;100645.63;;;8.16;83.72
7178;BME280;3630;42.146;24.756;2022-12-29T02:16:21;100647.31;;;8.16;83.68
7178;BME280;3630;42.146;24.756;2022-12-29T02:18:58;100638.69;;;8.14;83.66
7178;BME280;3630;42.146;24.756;2022-12-29T02:21:43;100640.75;;;8.21;83.56
7178;BME280;3630;42.146;24.756;2022-12-29T02:24:40;100637.22;;;8.19;82.98
7178;BME280;3630;42.146;24.756;2022-12-29T02:27:34;100628.00;;;8.22;82.88
7178;BME280;3630;42.146;24.756;2022-12-29T02:30:08;100634.88;;;8.23;82.85
7178;BME280;3630;42.146;24.756;2022-12-29T02:32:46;100628.13;;;8.25;82.57
7178;BME280;3630;42.146;24.756;2022-12-29T02:35:25;100622.22;;;8.26;82.43
7178;BME280;3630;42.146;24.756;2022-12-29T02:38:02;100628.13;;;8.25;82.43
7178;BME280;3630;42.146;24.756;2022-12-29T02:40:37;100621.19;;;8.23;82.29
7178;BME280;3630;42.146;24.756;2022-12-29T02:43:13;100624.41;;;8.19;82.52
7178;BME280;3630;42.146;24.756;2022-12-29T02:45:45;100618.50;;;8.20;82.57
7178;BME280;3630;42.146;24.756;2022-12-29T02:48:18;100620.78;;;8.14;83.04
7178;BME280;3630;42.146;24.756;2022-12-29T02:50:51;100614.91;;;8.16;82.93
7178;BME280;3630;42.146;24.756;2022-12-29T02:53:20;100577.22;;;7.93;82.67
7178;BME280;3630;42.146;24.756;2022-12-29T02:56:07;100619.84;;;8.12;82.95
7178;BME280;3630;42.146;24.756;2022-12-29T02:58:33;100616.34;;;8.10;82.91
7178;BME280;3630;42.146;24.756;2022-12-29T03:01:11;100610.06;;;8.03;83.30
7178;BME280;3630;42.146;24.756;2022-12-29T03:03:55;100613.38;;;8.01;83.25
7178;BME280;3630;42.146;24.756;2022-12-29T03:06:33;100615.81;;;7.98;83.55
7178;BME280;3630;42.146;24.756;2022-12-29T03:09:11;100609.66;;;7.94;83.44
7178;BME280;3630;42.146;24.756;2022-12-29T03:11:45;100612.97;;;7.92;83.75
7178;BME280;3630;42.146;24.756;2022-12-29T03:14:34;100608.25;;;7.82;83.97
7178;BME280;3630;42.146;24.756;2022-12-29T03:17:25;100607.19;;;7.77;83.82
7178;BME280;3630;42.146;24.756;2022-12-29T03:19:59;100608.66;;;7.71;84.36
7178;BME280;3630;42.146;24.756;2022-12-29T03:22:31;100608.50;;;7.68;84.68
7178;BME280;3630;42.146;24.756;2022-12-29T03:25:03;100610.94;;;7.65;85.07
7178;BME280;3630;42.146;24.756;2022-12-29T03:27:34;100605.81;;;7.65;84.89
7178;BME280;3630;42.146;24.756;2022-12-29T03:30:04;100596.22;;;7.61;85.58
7178;BME280;3630;42.146;24.756;2022-12-29T03:32:35;100600.16;;;7.72;85.44
7178;BME280;3630;42.146;24.756;2022-12-29T03:35:05;100589.44;;;7.62;85.39
7178;BME280;3630;42.146;24.756;2022-12-29T03:37:36;100600.63;;;7.64;85.44
7178;BME280;3630;42.146;24.756;2022-12-29T03:40:05;100599.84;;;7.47;85.64
7178;BME280;3630;42.146;24.756;2022-12-29T03:42:34;100596.88;;;7.21;87.21
7178;BME280;3630;42.146;24.756;2022-12-29T03:45:04;100601.78;;;7.16;88.22
7178;BME280;3630;42.146;24.756;2022-12-29T03:47:31;100599.31;;;7.00;88.81
7178;BME280;3630;42.146;24.756;2022-12-29T03:49:58;100604.50;;;6.84;89.47
7178;BME280;3630;42.146;24.756;2022-12-29T03:52:26;100605.25;;;6.65;89.79
7178;BME280;3630;42.146;24.756;2022-12-29T03:54:53;100606.53;;;6.57;90.71
7178;BME280;3630;42.146;24.756;2022-12-29T03:57:20;100594.84;;;6.44;91.11
7178;BME280;3630;42.146;24.756;2022-12-29T03:59:46;100595.22;;;6.34;92.18
7178;BME280;3630;42.146;24.756;2022-12-29T04:02:13;100604.69;;;6.21;93.45
7178;BME280;3630;42.146;24.756;2022-12-29T04:04:40;100602.41;;;6.09;93.69
7178;BME280;3630;42.146;24.756;2022-12-29T04:07:07;100603.19;;;6.08;94.20
7178;BME280;3630;42.146;24.756;2022-12-29T04:09:36;100609.75;;;6.03;95.08
7178;BME280;3630;42.146;24.756;2022-12-29T04:12:03;100617.41;;;6.03;95.20
7178;BME280;3630;42.146;24.756;2022-12-29T04:14:30;100586.44;;;5.81;95.48
7178;BME280;3630;42.146;24.756;2022-12-29T04:16:56;100611.75;;;5.92;95.56
7178;BME280;3630;42.146;24.756;2022-12-29T04:19:23;100625.72;;;5.84;96.49
7178;BME280;3630;42.146;24.756;2022-12-29T04:21:50;100625.03;;;5.87;96.79
7178;BME280;3630;42.146;24.756;2022-12-29T04:24:17;100622.81;;;5.93;96.74
7178;BME280;3630;42.146;24.756;2022-12-29T04:26:45;100604.53;;;5.85;96.59
7178;BME280;3630;42.146;24.756;2022-12-29T04:29:12;100628.06;;;5.96;96.68
7178;BME280;3630;42.146;24.756;2022-12-29T04:31:38;100628.78;;;5.93;96.62
7178;BME280;3630;42.146;24.756;2022-12-29T04:34:05;100637.56;;;5.99;96.49
7178;BME280;3630;42.146;24.756;2022-12-29T04:36:32;100635.03;;;5.99;96.55
7178;BME280;3630;42.146;24.756;2022-12-29T04:38:59;100644.50;;;6.01;96.02
7178;BME280;3630;42.146;24.756;2022-12-29T04:41:27;100625.28;;;5.91;96.59
7178;BME280;3630;42.146;24.756;2022-12-29T04:43:55;100644.66;;;6.04;96.74
7178;BME280;3630;42.146;24.756;2022-12-29T04:46:22;100649.78;;;6.04;96.04
7178;BME280;3630;42.146;24.756;2022-12-29T04:48:49;100649.22;;;6.10;96.34
7178;BME280;3630;42.146;24.756;2022-12-29T04:51:16;100649.91;;;6.07;96.07
7178;BME280;3630;42.146;24.756;2022-12-29T04:53:42;100653.34;;;6.08;95.37
7178;BME280;3630;42.146;24.756;2022-12-29T04:56:09;100649.84;;;6.06;95.55
7178;BME280;3630;42.146;24.756;2022-12-29T04:58:36;100660.22;;;6.09;95.73
7178;BME280;3630;42.146;24.756;2022-12-29T05:01:04;100660.44;;;6.13;95.08
7178;BME280;3630;42.146;24.756;2022-12-29T05:03:31;100663.09;;;6.15;94.94
7178;BME280;3630;42.146;24.756;2022-12-29T05:05:58;100658.94;;;6.17;95.09
7178;BME280;3630;42.146;24.756;2022-12-29T05:08:24;100665.88;;;6.19;95.00
7178;BME280;3630;42.146;24.756;2022-12-29T05:10:51;100659.97;;;6.20;94.63
7178;BME280;3630;42.146;24.756;2022-12-29T05:13:18;100659.41;;;6.26;94.41
7178;BME280;3630;42.146;24.756;2022-12-29T05:15:47;100665.94;;;6.21;94.35
7178;BME280;3630;42.146;24.756;2022-12-29T05:18:16;100663.63;;;6.25;94.15
7178;BME280;3630;42.146;24.756;2022-12-29T05:20:43;100660.13;;;6.23;94.21
7178;BME280;3630;42.146;24.756;2022-12-29T05:23:09;100655.03;;;6.23;93.62
7178;BME280;3630;42.146;24.756;2022-12-29T05:25:36;100655.16;;;6.26;93.73
7178;BME280;3630;42.146;24.756;2022-12-29T05:28:03;100654.16;;;6.23;94.56
7178;BME280;3630;42.146;24.756;2022-12-29T05:30:30;100654.06;;;6.21;94.19
7178;BME280;3630;42.146;24.756;2022-12-29T05:32:57;100646.50;;;6.23;93.86
7178;BME280;3630;42.146;24.756;2022-12-29T05:35:25;100637.47;;;6.13;93.58
7178;BME280;3630;42.146;24.756;2022-12-29T05:37:52;100648.72;;;6.17;94.31
7178;BME280;3630;42.146;24.756;2022-12-29T05:40:18;100656.31;;;6.15;94.27
7178;BME280;3630;42.146;24.756;2022-12-29T05:42:45;100647.22;;;6.20;93.80
7178;BME280;3630;42.146;24.756;2022-12-29T05:45:12;100643.69;;;6.18;93.73
7178;BME280;3630;42.146;24.756;2022-12-29T05:47:39;100633.25;;;6.14;93.72
7178;BME280;3630;42.146;24.756;2022-12-29T05:50:06;100638.03;;;6.08;93.06
7178;BME280;3630;42.146;24.756;2022-12-29T05:52:37;100643.69;;;6.02;93.27
7178;BME280;3630;42.146;24.756;2022-12-29T05:55:04;100640.19;;;6.00;93.89
7178;BME280;3630;42.146;24.756;2022-12-29T05:57:31;100633.03;;;5.93;93.86
7178;BME280;3630;42.146;24.756;2022-12-29T05:59:58;100635.09;;;6.00;94.00
7178;BME280;3630;42.146;24.756;2022-12-29T06:02:25;100632.31;;;5.96;94.54
7178;BME280;3630;42.146;24.756;2022-12-29T06:04:51;100648.47;;;5.96;94.65
7178;BME280;3630;42.146;24.756;2022-12-29T06:07:18;100641.53;;;5.93;95.00
7178;BME280;3630;42.146;24.756;2022-12-29T06:09:46;100646.91;;;5.98;94.44
7178;BME280;3630;42.146;24.756;2022-12-29T06:12:13;100646.91;;;5.98;94.58
7178;BME280;3630;42.146;24.756;2022-12-29T06:14:40;100642.75;;;6.00;93.82
7178;BME280;3630;42.146;24.756;2022-12-29T06:17:07;100626.16;;;5.92;94.53
7178;BME280;3630;42.146;24.756;2022-12-29T06:19:34;100640.50;;;6.06;94.11
7178;BME280;3630;42.146;24.756;2022-12-29T06:22:01;100647.34;;;6.07;93.60
7178;BME280;3630;42.146;24.756;2022-12-29T06:24:28;100648.16;;;6.06;93.32
7178;BME280;3630;42.146;24.756;2022-12-29T06:26:56;100626.50;;;5.98;93.17
7178;BME280;3630;42.146;24.756;2022-12-29T06:29:23;100653.19;;;6.05;93.48
7178;BME280;3630;42.146;24.756;2022-12-29T06:31:50;100651.78;;;6.10;93.49
7178;BME280;3630;42.146;24.756;2022-12-29T06:34:21;100652.00;;;6.14;93.53
7178;BME280;3630;42.146;24.756;2022-12-29T06:36:48;100661.66;;;6.20;93.49
7178;BME280;3630;42.146;24.756;2022-12-29T06:39:15;100663.81;;;6.28;94.48
7178;BME280;3630;42.146;24.756;2022-12-29T06:41:41;100663.94;;;6.47;93.20
7178;BME280;3630;42.146;24.756;2022-12-29T06:44:10;100666.38;;;6.62;92.81
7178;BME280;3630;42.146;24.756;2022-12-29T06:46:36;100674.75;;;6.60;91.60
7178;BME280;3630;42.146;24.756;2022-12-29T06:49:03;100673.09;;;6.60;91.42
7178;BME280;3630;42.146;24.756;2022-12-29T06:51:30;100681.44;;;6.74;92.11
7178;BME280;3630;42.146;24.756;2022-12-29T06:53:57;100683.38;;;6.95;91.16
7178;BME280;3630;42.146;24.756;2022-12-29T06:56:24;100680.66;;;7.44;90.31
7178;BME280;3630;42.146;24.756;2022-12-29T06:58:50;100680.78;;;7.64;87.56
7178;BME280;3630;42.146;24.756;2022-12-29T07:01:18;100687.56;;;7.64;86.06
7178;BME280;3630;42.146;24.756;2022-12-29T07:03:45;100700.94;;;7.58;85.26
7178;BME280;3630;42.146;24.756;2022-12-29T07:06:12;100678.91;;;7.43;85.68
7178;BME280;3630;42.146;24.756;2022-12-29T07:08:39;100696.66;;;7.40;86.18
7178;BME280;3630;42.146;24.756;2022-12-29T07:11:06;100694.22;;;7.25;86.82
7178;BME280;3630;42.146;24.756;2022-12-29T07:13:32;100695.84;;;7.23;86.68
7178;BME280;3630;42.146;24.756;2022-12-29T07:15:59;100702.63;;;7.23;86.18
7178;BME280;3630;42.146;24.756;2022-12-29T07:18:27;100700.63;;;7.17;86.53
7178;BME280;3630;42.146;24.756;2022-12-29T07:20:54;100697.66;;;7.08;86.51
7178;BME280;3630;42.146;24.756;2022-12-29T07:23:21;100701.53;;;7.00;86.97
7178;BME280;3630;42.146;24.756;2022-12-29T07:25:48;100696.56;;;7.03;86.92
7178;BME280;3630;42.146;24.756;2022-12-29T07:28:14;100697.50;;;7.05;87.07
7178;BME280;3630;42.146;24.756;2022-12-29T07:30:41;100691.34;;;7.01;86.95
7178;BME280;3630;42.146;24.756;2022-12-29T07:33:08;100696.97;;;6.94;86.56
7178;BME280;3630;42.146;24.756;2022-12-29T07:35:36;100687.66;;;6.95;86.14
7178;BME280;3630;42.146;24.756;2022-12-29T07:38:03;100689.06;;;6.90;86.41
7178;BME280;3630;42.146;24.756;2022-12-29T07:40:30;100692.50;;;6.90;85.84
7178;BME280;3630;42.146;24.756;2022-12-29T07:42:56;100693.97;;;6.85;86.11
7178;BME280;3630;42.146;24.756;2022-12-29T07:45:23;100681.34;;;6.88;85.75
7178;BME280;3630;42.146;24.756;2022-12-29T07:47:50;100691.41;;;6.85;85.26
7178;BME280;3630;42.146;24.756;2022-12-29T07:50:17;100687.81;;;6.82;85.43
7178;BME280;3630;42.146;24.756;2022-12-29T07:52:45;100694.91;;;6.87;85.42
7178;BME280;3630;42.146;24.756;2022-12-29T07:55:13;100688.31;;;6.75;85.86
7178;BME280;3630;42.146;24.756;2022-12-29T07:57:40;100690.31;;;6.80;85.53
7178;BME280;3630;42.146;24.756;2022-12-29T08:00:08;100692.91;;;6.82;85.74
7178;BME280;3630;42.146;24.756;2022-12-29T08:02:36;100689.06;;;6.90;85.09
7178;BME280;3630;42.146;24.756;2022-12-29T08:05:03;100675.34;;;6.88;85.89
7178;BME280;3630;42.146;24.756;2022-12-29T08:07:30;100696.41;;;7.00;85.55
7178;BME280;3630;42.146;24.756;2022-12-29T08:09:58;100664.25;;;6.87;85.29
7178;BME280;3630;42.146;24.756;2022-12-29T08:12:25;100690.31;;;7.14;85.15
7178;BME280;3630;42.146;24.756;2022-12-29T08:14:51;100698.19;;;7.19;84.96
7178;BME280;3630;42.146;24.756;2022-12-29T08:17:18;100691.31;;;7.18;86.09
7178;BME280;3630;42.146;24.756;2022-12-29T08:19:45;100704.69;;;7.30;86.30
7178;BME280;3630;42.146;24.756;2022-12-29T08:22:13;100685.91;;;7.29;85.39
7178;BME280;3630;42.146;24.756;2022-12-29T08:24:40;100700.53;;;7.32;85.74
7178;BME280;3630;42.146;24.756;2022-12-29T08:27:08;100694.81;;;7.37;85.89
7178;BME280;3630;42.146;24.756;2022-12-29T08:29:35;100689.81;;;7.39;85.10
7178;BME280;3630;42.146;24.756;2022-12-29T08:32:02;100697.47;;;7.39;85.38
7178;BME280;3630;42.146;24.756;2022-12-29T08:34:30;100697.75;;;7.45;85.10
7178;BME280;3630;42.146;24.756;2022-12-29T08:36:57;100688.50;;;7.47;85.61
7178;BME280;3630;42.146;24.756;2022-12-29T08:39:24;100690.72;;;7.58;86.01
7178;BME280;3630;42.146;24.756;2022-12-29T08:41:50;100686.03;;;7.67;85.54
7178;BME280;3630;42.146;24.756;2022-12-29T08:44:19;100685.91;;;7.64;85.08
7178;BME280;3630;42.146;24.756;2022-12-29T08:46:45;100679.31;;;7.69;84.10
7178;BME280;3630;42.146;24.756;2022-12-29T08:49:12;100680.47;;;7.76;84.47
7178;BME280;3630;42.146;24.756;2022-12-29T08:51:39;100672.22;;;7.82;84.57
7178;BME280;3630;42.146;24.756;2022-12-29T08:54:06;100676.00;;;7.90;85.51
7178;BME280;3630;42.146;24.756;2022-12-29T08:56:33;100669.50;;;7.96;85.63
7178;BME280;3630;42.146;24.756;2022-12-29T08:59:00;100668.06;;;8.03;85.46
7178;BME280;3630;42.146;24.756;2022-12-29T09:01:28;100668.16;;;8.04;85.45
7178;BME280;3630;42.146;24.756;2022-12-29T09:03:55;100638.97;;;8.01;85.26
7178;BME280;3630;42.146;24.756;2022-12-29T09:06:22;100655.13;;;8.19;84.91
7178;BME280;3630;42.146;24.756;2022-12-29T09:08:49;100654.16;;;8.15;84.50
7178;BME280;3630;42.146;24.756;2022-12-29T09:11:18;100651.91;;;8.23;84.43
7178;BME280;3630;42.146;24.756;2022-12-29T09:13:45;100648.16;;;8.34;84.06
7178;BME280;3630;42.146;24.756;2022-12-29T09:16:14;100647.09;;;8.29;83.24
7178;BME280;3630;42.146;24.756;2022-12-29T09:18:43;100635.22;;;8.31;83.30
7178;BME280;3630;42.146;24.756;2022-12-29T09:21:11;100633.81;;;8.38;83.61
7178;BME280;3630;42.146;24.756;2022-12-29T09:23:39;100631.84;;;8.51;82.90
7178;BME280;3630;42.146;24.756;2022-12-29T09:26:06;100628.72;;;8.58;82.48
7178;BME280;3630;42.146;24.756;2022-12-29T09:28:33;100628.16;;;8.65;82.23
7178;BME280;3630;42.146;24.756;2022-12-29T09:31:01;100619.97;;;8.74;81.52
7178;BME280;3630;42.146;24.756;2022-12-29T09:33:27;100604.91;;;8.61;80.92
7178;BME280;3630;42.146;24.756;2022-12-29T09:35:57;100575.56;;;8.53;81.13
7178;BME280;3630;42.146;24.756;2022-12-29T09:38:25;100617.09;;;8.66;80.93
7178;BME280;3630;42.146;24.756;2022-12-29T09:40:54;100608.19;;;8.57;81.53
7178;BME280;3630;42.146;24.756;2022-12-29T09:43:33;100608.66;;;8.69;81.41
7178;BME280;3630;42.146;24.756;2022-12-29T09:46:11;100594.75;;;8.62;81.29
7178;BME280;3630;42.146;24.756;2022-12-29T09:48:45;100591.63;;;8.69;81.12
7178;BME280;3630;42.146;24.756;2022-12-29T09:51:17;100568.44;;;8.46;81.36
7178;BME280;3630;42.146;24.756;2022-12-29T09:53:50;100585.56;;;8.67;80.87
7178;BME280;3630;42.146;24.756;2022-12-29T09:56:21;100501.66;;;8.22;81.31
7178;BME280;3630;42.146;24.756;2022-12-29T09:58:52;100578.31;;;8.78;80.72
7178;BME280;3630;42.146;24.756;2022-12-29T10:01:28;100569.50;;;8.92;79.00
7178;BME280;3630;42.146;24.756;2022-12-29T10:03:57;100565.00;;;8.86;77.87
7178;BME280;3630;42.146;24.756;2022-12-29T10:06:32;100557.72;;;8.97;78.67
7178;BME280;3630;42.146;24.756;2022-12-29T10:09:03;100560.03;;;9.12;77.58
7178;BME280;3630;42.146;24.756;2022-12-29T10:11:52;100548.28;;;9.18;77.14
7178;BME280;3630;42.146;24.756;2022-12-29T10:14:33;100552.91;;;9.27;76.49
7178;BME280;3630;42.146;24.756;2022-12-29T10:17:12;100551.91;;;9.23;77.02
7178;BME280;3630;42.146;24.756;2022-12-29T10:19:56;100547.91;;;9.30;76.89
7178;BME280;3630;42.146;24.756;2022-12-29T10:22:42;100540.59;;;9.40;76.03
7178;BME280;3630;42.146;24.756;2022-12-29T10:25:15;100546.09;;;9.27;76.33
7178;BME280;3630;42.146;24.756;2022-12-29T10:27:43;100529.81;;;9.27;75.98
7178;BME280;3630;42.146;24.756;2022-12-29T10:30:14;100543.41;;;9.46;75.94
7178;BME280;3630;42.146;24.756;2022-12-29T10:32:45;100535.97;;;9.54;75.57
7178;BME280;3630;42.146;24.756;2022-12-29T10:35:16;100500.69;;;9.47;75.57
7178;BME280;3630;42.146;24.756;2022-12-29T10:37:50;100528.75;;;9.66;74.95
7178;BME280;3630;42.146;24.756;2022-12-29T10:40:24;100520.97;;;9.41;75.21
7178;BME280;3630;42.146;24.756;2022-12-29T10:42:54;100529.13;;;9.53;76.16
7178;BME280;3630;42.146;24.756;2022-12-29T10:45:23;100512.47;;;9.66;75.60
7178;BME280;3630;42.146;24.756;2022-12-29T10:47:56;100517.94;;;9.75;74.88
7178;BME280;3630;42.146;24.756;2022-12-29T10:50:25;100436.16;;;9.36;74.75
7178;BME280;3630;42.146;24.756;2022-12-29T10:52:54;100506.06;;;9.78;74.60
7178;BME280;3630;42.146;24.756;2022-12-29T10:55:25;100509.13;;;9.92;74.17
7178;BME280;3630;42.146;24.756;2022-12-29T10:57:55;100521.50;;;10.03;73.77
7178;BME280;3630;42.146;24.756;2022-12-29T11:00:25;100515.78;;;10.11;73.03
7178;BME280;3630;42.146;24.756;2022-12-29T11:03:03;100506.19;;;10.05;73.12
7178;BME280;3630;42.146;24.756;2022-12-29T11:05:38;100501.19;;;10.09;73.11
7178;BME280;3630;42.146;24.756;2022-12-29T11:08:14;100506.25;;;10.08;72.75
7178;BME280;3630;42.146;24.756;2022-12-29T11:10:44;100476.53;;;10.13;72.82
7178;BME280;3630;42.146;24.756;2022-12-29T11:13:14;100496.78;;;10.29;71.89
7178;BME280;3630;42.146;24.756;2022-12-29T11:15:43;100488.72;;;10.19;72.55
7178;BME280;3630;42.146;24.756;2022-12-29T11:18:21;100488.38;;;10.35;71.81
7178;BME280;3630;42.146;24.756;2022-12-29T11:20:50;100485.25;;;10.43;71.55
7178;BME280;3630;42.146;24.756;2022-12-29T11:23:29;100456.59;;;10.31;70.92
7178;BME280;3630;42.146;24.756;2022-12-29T11:26:17;100477.03;;;10.55;70.49
7178;BME280;3630;42.146;24.756;2022-12-29T11:28:47;100476.63;;;10.68;69.88
7178;BME280;3630;42.146;24.756;2022-12-29T11:31:30;100461.91;;;10.64;70.13
7178;BME280;3630;42.146;24.756;2022-12-29T11:33:56;100478.69;;;10.80;69.25
7178;BME280;3630;42.146;24.756;2022-12-29T11:36:24;100478.09;;;10.88;68.65
7178;BME280;3630;42.146;24.756;2022-12-29T11:38:54;100447.09;;;10.82;68.09
7178;BME280;3630;42.146;24.756;2022-12-29T11:41:24;100468.47;;;10.81;67.90
7178;BME280;3630;42.146;24.756;2022-12-29T11:43:52;100457.06;;;10.73;68.24
7178;BME280;3630;42.146;24.756;2022-12-29T11:46:23;100459.84;;;10.79;68.11
7178;BME280;3630;42.146;24.756;2022-12-29T11:48:50;100459.69;;;10.75;67.91
7178;BME280;3630;42.146;24.756;2022-12-29T11:51:24;100459.09;;;10.83;68.25
7178;BME280;3630;42.146;24.756;2022-12-29T11:53:56;100450.66;;;10.87;67.72
7178;BME280;3630;42.146;24.756;2022-12-29T11:56:33;100455.03;;;10.90;67.88
7178;BME280;3630;42.146;24.756;2022-12-29T12:02:15;100445.19;;;11.05;67.09
7178;BME280;3630;42.146;24.756;2022-12-29T12:04:48;100450.19;;;11.00;66.74
7178;BME280;3630;42.146;24.756;2022-12-29T12:07:18;100446.13;;;11.07;66.70
7178;BME280;3630;42.146;24.756;2022-12-29T12:09:51;100439.44;;;11.13;66.48
7178;BME280;3630;42.146;24.756;2022-12-29T12:12:23;100435.34;;;11.20;66.31
7178;BME280;3630;42.146;24.756;2022-12-29T12:14:54;100428.75;;;11.30;66.01
7178;BME280;3630;42.146;24.756;2022-12-29T12:17:29;100432.38;;;11.36;65.70
7178;BME280;3630;42.146;24.756;2022-12-29T12:20:12;100432.50;;;11.41;64.68
7178;BME280;3630;42.146;24.756;2022-12-29T12:22:44;100422.16;;;11.39;65.13
7178;BME280;3630;42.146;24.756;2022-12-29T12:25:19;100415.38;;;11.43;65.07
7178;BME280;3630;42.146;24.756;2022-12-29T12:27:50;100408.81;;;11.54;64.88
7178;BME280;3630;42.146;24.756;2022-12-29T12:30:21;100402.78;;;11.52;64.34
7178;BME280;3630;42.146;24.756;2022-12-29T12:32:53;100421.88;;;11.60;63.80
7178;BME280;3630;42.146;24.756;2022-12-29T12:35:32;100414.75;;;11.51;64.29
7178;BME280;3630;42.146;24.756;2022-12-29T12:38:12;100421.84;;;11.58;64.19
7178;BME280;3630;42.146;24.756;2022-12-29T12:41:06;100416.72;;;11.60;63.77
7178;BME280;3630;42.146;24.756;2022-12-29T12:43:40;100409.59;;;11.50;64.30
7178;BME280;3630;42.146;24.756;2022-12-29T12:46:31;100415.69;;;11.53;64.90
7178;BME280;3630;42.146;24.756;2022-12-29T12:49:19;100414.75;;;11.50;65.59
7178;BME280;3630;42.146;24.756;2022-12-29T12:51:58;100413.97;;;11.54;65.45
7178;BME280;3630;42.146;24.756;2022-12-29T12:54:38;100418.47;;;11.61;64.84
7178;BME280;3630;42.146;24.756;2022-12-29T12:57:13;100410.88;;;11.65;64.33
7178;BME280;3630;42.146;24.756;2022-12-29T12:59:52;100408.34;;;11.67;64.61
7178;BME280;3630;42.146;24.756;2022-12-29T13:02:36;100409.94;;;11.62;64.42
7178;BME280;3630;42.146;24.756;2022-12-29T13:05:31;100415.09;;;11.62;64.70
7178;BME280;3630;42.146;24.756;2022-12-29T13:08:24;100399.41;;;11.54;64.12
7178;BME280;3630;42.146;24.756;2022-12-29T13:10:56;100420.28;;;11.65;63.76
7178;BME280;3630;42.146;24.756;2022-12-29T13:16:33;100425.03;;;11.50;64.55
7178;BME280;3630;42.146;24.756;2022-12-29T13:19:08;100427.44;;;11.44;65.15
7178;BME280;3630;42.146;24.756;2022-12-29T13:21:55;100422.09;;;11.36;65.46
7178;BME280;3630;42.146;24.756;2022-12-29T13:24:30;100416.72;;;11.29;66.08
7178;BME280;3630;42.146;24.756;2022-12-29T13:27:04;100412.56;;;11.34;66.62
7178;BME280;3630;42.146;24.756;2022-12-29T13:29:43;100409.94;;;11.32;66.36
7178;BME280;3630;42.146;24.756;2022-12-29T13:32:21;100416.22;;;11.42;66.24
7178;BME280;3630;42.146;24.756;2022-12-29T13:34:57;100414.25;;;11.32;66.66
7178;BME280;3630;42.146;24.756;2022-12-29T13:37:27;100403.59;;;11.19;66.51